sensor_id;sensor_type;location;lat;lon;timestamp;P1;durP1;ratioP1;P2;durP2;ratioP2
42104;SDS011;68365;51.472;5.712;2023-04-03T00:01:13;4.30;;;2.00;;
42104;SDS011;68365;51.472;5.712;2023-04-03T00:03:40;2.83;;;1.70;;
42104;SDS011;68365;51.472;5.712;2023-04-03T00:06:06;3.55;;;1.90;;
42104;SDS011;68365;51.472;5.712;2023-04-03T00:08:35;5.00;;;1.95;;
42104;SDS011;68365;51.472;5.712;2023-04-03T00:11:01;3.60;;;1.90;;
42104;SDS011;68365;51.472;5.712;2023-04-03T00:13:29;3.08;;;1.88;;
42104;SDS011;68365;51.472;5.712;2023-04-03T00:15:55;4.03;;;1.83;;
42104;SDS011;68365;51.472;5.712;2023-04-03T00:18:21;2.45;;;1.90;;
42104;SDS011;68365;51.472;5.712;2023-04-03T00:20:47;4.07;;;2.10;;
42104;SDS011;68365;51.472;5.712;2023-04-03T00:23:14;3.45;;;1.80;;
42104;SDS011;68365;51.472;5.712;2023-04-03T00:25:40;2.70;;;1.60;;
42104;SDS011;68365;51.472;5.712;2023-04-03T00:28:06;4.25;;;1.83;;
42104;SDS011;68365;51.472;5.712;2023-04-03T00:30:32;4.03;;;1.75;;
42104;SDS011;68365;51.472;5.712;2023-04-03T00:32:58;3.20;;;1.70;;
42104;SDS011;68365;51.472;5.712;2023-04-03T00:35:24;3.08;;;1.92;;
42104;SDS011;68365;51.472;5.712;2023-04-03T00:37:50;2.50;;;1.55;;
42104;SDS011;68365;51.472;5.712;2023-04-03T00:40:18;4.10;;;2.00;;
42104;SDS011;68365;51.472;5.712;2023-04-03T00:42:45;4.53;;;1.83;;
42104;SDS011;68365;51.472;5.712;2023-04-03T00:45:48;3.70;;;1.83;;
42104;SDS011;68365;51.472;5.712;2023-04-03T00:48:10;2.63;;;1.60;;
42104;SDS011;68365;51.472;5.712;2023-04-03T00:53:11;4.15;;;1.80;;
42104;SDS011;68365;51.472;5.712;2023-04-03T00:55:42;2.28;;;1.60;;
42104;SDS011;68365;51.472;5.712;2023-04-03T00:58:09;3.00;;;1.75;;
42104;SDS011;68365;51.472;5.712;2023-04-03T01:00:37;3.92;;;1.85;;
42104;SDS011;68365;51.472;5.712;2023-04-03T01:03:07;3.13;;;1.77;;
42104;SDS011;68365;51.472;5.712;2023-04-03T01:05:33;2.75;;;1.60;;
42104;SDS011;68365;51.472;5.712;2023-04-03T01:07:59;2.70;;;1.63;;
42104;SDS011;68365;51.472;5.712;2023-04-03T01:10:25;2.28;;;1.60;;
42104;SDS011;68365;51.472;5.712;2023-04-03T01:12:51;4.13;;;1.85;;
42104;SDS011;68365;51.472;5.712;2023-04-03T01:15:21;3.25;;;1.83;;
42104;SDS011;68365;51.472;5.712;2023-04-03T01:17:55;3.38;;;1.98;;
42104;SDS011;68365;51.472;5.712;2023-04-03T01:25:57;2.85;;;1.70;;
42104;SDS011;68365;51.472;5.712;2023-04-03T01:28:27;4.03;;;1.67;;
42104;SDS011;68365;51.472;5.712;2023-04-03T01:33:34;3.75;;;1.90;;
42104;SDS011;68365;51.472;5.712;2023-04-03T01:36:01;3.40;;;1.83;;
42104;SDS011;68365;51.472;5.712;2023-04-03T01:38:28;3.25;;;1.90;;
42104;SDS011;68365;51.472;5.712;2023-04-03T01:40:54;2.42;;;1.50;;
42104;SDS011;68365;51.472;5.712;2023-04-03T01:43:20;3.10;;;1.63;;
42104;SDS011;68365;51.472;5.712;2023-04-03T01:45:46;2.70;;;1.70;;
42104;SDS011;68365;51.472;5.712;2023-04-03T01:48:12;2.47;;;1.70;;
42104;SDS011;68365;51.472;5.712;2023-04-03T01:50:38;2.25;;;1.45;;
42104;SDS011;68365;51.472;5.712;2023-04-03T01:53:04;2.28;;;1.50;;
42104;SDS011;68365;51.472;5.712;2023-04-03T01:55:30;3.97;;;1.70;;
42104;SDS011;68365;51.472;5.712;2023-04-03T01:57:56;3.33;;;1.88;;
42104;SDS011;68365;51.472;5.712;2023-04-03T02:00:21;2.38;;;1.55;;
42104;SDS011;68365;51.472;5.712;2023-04-03T02:02:48;2.42;;;1.73;;
42104;SDS011;68365;51.472;5.712;2023-04-03T02:05:13;2.80;;;1.70;;
42104;SDS011;68365;51.472;5.712;2023-04-03T02:07:40;2.22;;;1.60;;
42104;SDS011;68365;51.472;5.712;2023-04-03T02:10:05;3.00;;;1.60;;
42104;SDS011;68365;51.472;5.712;2023-04-03T02:12:32;2.53;;;1.83;;
42104;SDS011;68365;51.472;5.712;2023-04-03T02:14:58;3.22;;;1.60;;
42104;SDS011;68365;51.472;5.712;2023-04-03T02:17:23;3.28;;;1.80;;
42104;SDS011;68365;51.472;5.712;2023-04-03T02:19:49;2.60;;;1.67;;
42104;SDS011;68365;51.472;5.712;2023-04-03T02:22:15;1.98;;;1.48;;
42104;SDS011;68365;51.472;5.712;2023-04-03T02:24:41;1.65;;;1.30;;
42104;SDS011;68365;51.472;5.712;2023-04-03T02:27:07;2.00;;;1.58;;
42104;SDS011;68365;51.472;5.712;2023-04-03T02:29:33;2.67;;;1.70;;
42104;SDS011;68365;51.472;5.712;2023-04-03T02:31:59;2.53;;;1.67;;
42104;SDS011;68365;51.472;5.712;2023-04-03T02:34:24;2.45;;;1.50;;
42104;SDS011;68365;51.472;5.712;2023-04-03T02:36:50;2.30;;;1.50;;
42104;SDS011;68365;51.472;5.712;2023-04-03T02:39:16;2.75;;;1.75;;
42104;SDS011;68365;51.472;5.712;2023-04-03T02:41:42;3.35;;;1.63;;
42104;SDS011;68365;51.472;5.712;2023-04-03T02:44:09;2.10;;;1.67;;
42104;SDS011;68365;51.472;5.712;2023-04-03T02:46:36;2.08;;;1.50;;
42104;SDS011;68365;51.472;5.712;2023-04-03T02:49:02;2.95;;;1.73;;
42104;SDS011;68365;51.472;5.712;2023-04-03T02:51:28;2.67;;;1.75;;
42104;SDS011;68365;51.472;5.712;2023-04-03T02:53:54;2.13;;;1.50;;
42104;SDS011;68365;51.472;5.712;2023-04-03T02:56:20;1.92;;;1.60;;
42104;SDS011;68365;51.472;5.712;2023-04-03T02:58:46;2.65;;;1.50;;
42104;SDS011;68365;51.472;5.712;2023-04-03T03:01:12;2.00;;;1.42;;
42104;SDS011;68365;51.472;5.712;2023-04-03T03:03:39;2.25;;;1.58;;
42104;SDS011;68365;51.472;5.712;2023-04-03T03:06:06;2.38;;;1.60;;
42104;SDS011;68365;51.472;5.712;2023-04-03T03:08:37;3.00;;;1.58;;
42104;SDS011;68365;51.472;5.712;2023-04-03T03:11:04;2.22;;;1.45;;
42104;SDS011;68365;51.472;5.712;2023-04-03T03:13:30;2.70;;;1.40;;
42104;SDS011;68365;51.472;5.712;2023-04-03T03:15:57;2.50;;;1.63;;
42104;SDS011;68365;51.472;5.712;2023-04-03T03:18:23;2.55;;;1.70;;
42104;SDS011;68365;51.472;5.712;2023-04-03T03:20:56;2.03;;;1.40;;
42104;SDS011;68365;51.472;5.712;2023-04-03T03:23:25;3.63;;;1.65;;
42104;SDS011;68365;51.472;5.712;2023-04-03T03:26:00;2.47;;;1.60;;
42104;SDS011;68365;51.472;5.712;2023-04-03T03:28:30;2.17;;;1.40;;
42104;SDS011;68365;51.472;5.712;2023-04-03T03:30:57;3.22;;;1.45;;
42104;SDS011;68365;51.472;5.712;2023-04-03T03:33:24;2.05;;;1.40;;
42104;SDS011;68365;51.472;5.712;2023-04-03T03:35:51;2.15;;;1.52;;
42104;SDS011;68365;51.472;5.712;2023-04-03T03:38:19;2.05;;;1.40;;
42104;SDS011;68365;51.472;5.712;2023-04-03T03:40:46;2.53;;;1.65;;
42104;SDS011;68365;51.472;5.712;2023-04-03T03:43:14;1.77;;;1.40;;
42104;SDS011;68365;51.472;5.712;2023-04-03T03:45:40;1.67;;;1.45;;
42104;SDS011;68365;51.472;5.712;2023-04-03T03:48:06;3.92;;;1.63;;
42104;SDS011;68365;51.472;5.712;2023-04-03T03:50:32;2.33;;;1.45;;
42104;SDS011;68365;51.472;5.712;2023-04-03T03:52:58;2.40;;;1.60;;
42104;SDS011;68365;51.472;5.712;2023-04-03T03:55:25;3.90;;;1.70;;
42104;SDS011;68365;51.472;5.712;2023-04-03T03:57:51;2.00;;;1.48;;
42104;SDS011;68365;51.472;5.712;2023-04-03T04:00:16;2.45;;;1.70;;
42104;SDS011;68365;51.472;5.712;2023-04-03T04:02:42;3.00;;;1.67;;
42104;SDS011;68365;51.472;5.712;2023-04-03T04:05:08;3.13;;;1.58;;
42104;SDS011;68365;51.472;5.712;2023-04-03T04:07:34;1.90;;;1.40;;
42104;SDS011;68365;51.472;5.712;2023-04-03T04:10:00;1.80;;;1.40;;
42104;SDS011;68365;51.472;5.712;2023-04-03T04:12:27;4.10;;;1.80;;
42104;SDS011;68365;51.472;5.712;2023-04-03T04:14:52;2.28;;;1.80;;
42104;SDS011;68365;51.472;5.712;2023-04-03T04:17:18;2.25;;;1.42;;
42104;SDS011;68365;51.472;5.712;2023-04-03T04:19:44;2.92;;;1.48;;
42104;SDS011;68365;51.472;5.712;2023-04-03T04:22:10;1.92;;;1.33;;
42104;SDS011;68365;51.472;5.712;2023-04-03T04:24:36;2.33;;;1.30;;
42104;SDS011;68365;51.472;5.712;2023-04-03T04:27:02;2.53;;;1.30;;
42104;SDS011;68365;51.472;5.712;2023-04-03T04:29:28;2.65;;;1.60;;
42104;SDS011;68365;51.472;5.712;2023-04-03T04:31:53;2.25;;;1.50;;
42104;SDS011;68365;51.472;5.712;2023-04-03T04:34:19;1.70;;;1.30;;
42104;SDS011;68365;51.472;5.712;2023-04-03T04:36:45;2.13;;;1.48;;
42104;SDS011;68365;51.472;5.712;2023-04-03T04:39:11;4.10;;;1.40;;
42104;SDS011;68365;51.472;5.712;2023-04-03T04:41:37;2.28;;;1.50;;
42104;SDS011;68365;51.472;5.712;2023-04-03T04:44:02;2.25;;;1.40;;
42104;SDS011;68365;51.472;5.712;2023-04-03T04:46:28;2.47;;;1.60;;
42104;SDS011;68365;51.472;5.712;2023-04-03T04:48:54;4.10;;;1.63;;
42104;SDS011;68365;51.472;5.712;2023-04-03T04:51:20;2.67;;;1.67;;
42104;SDS011;68365;51.472;5.712;2023-04-03T04:53:45;2.45;;;1.48;;
42104;SDS011;68365;51.472;5.712;2023-04-03T04:56:11;2.22;;;1.50;;
42104;SDS011;68365;51.472;5.712;2023-04-03T04:58:37;3.08;;;1.45;;
42104;SDS011;68365;51.472;5.712;2023-04-03T05:01:04;2.50;;;1.60;;
42104;SDS011;68365;51.472;5.712;2023-04-03T05:03:32;2.42;;;1.60;;
42104;SDS011;68365;51.472;5.712;2023-04-03T05:05:59;2.28;;;1.40;;
42104;SDS011;68365;51.472;5.712;2023-04-03T05:08:25;3.33;;;1.42;;
42104;SDS011;68365;51.472;5.712;2023-04-03T05:10:51;1.67;;;1.27;;
42104;SDS011;68365;51.472;5.712;2023-04-03T05:13:18;3.70;;;1.30;;
42104;SDS011;68365;51.472;5.712;2023-04-03T05:15:44;1.77;;;1.38;;
42104;SDS011;68365;51.472;5.712;2023-04-03T05:18:10;2.33;;;1.45;;
42104;SDS011;68365;51.472;5.712;2023-04-03T05:20:37;1.88;;;1.20;;
42104;SDS011;68365;51.472;5.712;2023-04-03T05:23:03;2.28;;;1.48;;
42104;SDS011;68365;51.472;5.712;2023-04-03T05:25:29;3.45;;;1.42;;
42104;SDS011;68365;51.472;5.712;2023-04-03T05:27:55;1.88;;;1.20;;
42104;SDS011;68365;51.472;5.712;2023-04-03T05:30:21;1.88;;;1.20;;
42104;SDS011;68365;51.472;5.712;2023-04-03T05:32:47;2.10;;;1.30;;
42104;SDS011;68365;51.472;5.712;2023-04-03T05:35:13;2.47;;;1.23;;
42104;SDS011;68365;51.472;5.712;2023-04-03T05:37:38;1.95;;;1.30;;
42104;SDS011;68365;51.472;5.712;2023-04-03T05:40:05;2.75;;;1.30;;
42104;SDS011;68365;51.472;5.712;2023-04-03T05:42:32;1.80;;;1.30;;
42104;SDS011;68365;51.472;5.712;2023-04-03T05:44:58;1.90;;;1.20;;
42104;SDS011;68365;51.472;5.712;2023-04-03T05:47:24;1.65;;;1.23;;
42104;SDS011;68365;51.472;5.712;2023-04-03T05:49:50;2.05;;;1.27;;
42104;SDS011;68365;51.472;5.712;2023-04-03T05:52:23;2.25;;;1.35;;
42104;SDS011;68365;51.472;5.712;2023-04-03T05:54:56;2.72;;;1.50;;
42104;SDS011;68365;51.472;5.712;2023-04-03T05:57:23;1.88;;;1.27;;
42104;SDS011;68365;51.472;5.712;2023-04-03T05:59:49;4.03;;;1.30;;
42104;SDS011;68365;51.472;5.712;2023-04-03T06:02:21;1.80;;;1.20;;
42104;SDS011;68365;51.472;5.712;2023-04-03T06:04:49;2.05;;;1.30;;
42104;SDS011;68365;51.472;5.712;2023-04-03T06:07:16;2.05;;;1.35;;
42104;SDS011;68365;51.472;5.712;2023-04-03T06:09:48;2.20;;;1.35;;
42104;SDS011;68365;51.472;5.712;2023-04-03T06:12:16;2.35;;;1.67;;
42104;SDS011;68365;51.472;5.712;2023-04-03T06:14:43;1.58;;;1.08;;
42104;SDS011;68365;51.472;5.712;2023-04-03T06:17:09;1.77;;;1.30;;
42104;SDS011;68365;51.472;5.712;2023-04-03T06:19:37;2.38;;;1.40;;
42104;SDS011;68365;51.472;5.712;2023-04-03T06:22:03;1.73;;;1.20;;
42104;SDS011;68365;51.472;5.712;2023-04-03T06:24:29;2.45;;;1.10;;
42104;SDS011;68365;51.472;5.712;2023-04-03T06:26:55;2.17;;;1.20;;
42104;SDS011;68365;51.472;5.712;2023-04-03T06:29:22;1.52;;;1.20;;
42104;SDS011;68365;51.472;5.712;2023-04-03T06:31:49;1.85;;;1.13;;
42104;SDS011;68365;51.472;5.712;2023-04-03T06:34:15;3.17;;;1.35;;
42104;SDS011;68365;51.472;5.712;2023-04-03T06:36:43;1.83;;;1.10;;
42104;SDS011;68365;51.472;5.712;2023-04-03T06:39:13;2.33;;;1.30;;
42104;SDS011;68365;51.472;5.712;2023-04-03T06:41:42;1.52;;;1.10;;
42104;SDS011;68365;51.472;5.712;2023-04-03T06:44:09;2.53;;;1.38;;
42104;SDS011;68365;51.472;5.712;2023-04-03T06:46:36;1.73;;;1.15;;
42104;SDS011;68365;51.472;5.712;2023-04-03T06:49:03;2.42;;;1.13;;
42104;SDS011;68365;51.472;5.712;2023-04-03T06:51:29;1.90;;;1.17;;
42104;SDS011;68365;51.472;5.712;2023-04-03T06:53:57;1.83;;;1.10;;
42104;SDS011;68365;51.472;5.712;2023-04-03T06:56:24;1.75;;;1.17;;
42104;SDS011;68365;51.472;5.712;2023-04-03T06:58:51;1.70;;;1.00;;
42104;SDS011;68365;51.472;5.712;2023-04-03T07:01:19;2.42;;;1.40;;
42104;SDS011;68365;51.472;5.712;2023-04-03T07:03:46;2.65;;;1.40;;
42104;SDS011;68365;51.472;5.712;2023-04-03T07:06:13;2.63;;;1.30;;
42104;SDS011;68365;51.472;5.712;2023-04-03T07:08:41;2.28;;;1.02;;
42104;SDS011;68365;51.472;5.712;2023-04-03T07:11:09;2.30;;;1.25;;
42104;SDS011;68365;51.472;5.712;2023-04-03T07:13:36;1.30;;;1.00;;
42104;SDS011;68365;51.472;5.712;2023-04-03T07:16:03;1.42;;;1.08;;
42104;SDS011;68365;51.472;5.712;2023-04-03T07:18:30;2.25;;;1.30;;
42104;SDS011;68365;51.472;5.712;2023-04-03T07:20:57;1.90;;;1.02;;
42104;SDS011;68365;51.472;5.712;2023-04-03T07:23:23;3.97;;;1.20;;
42104;SDS011;68365;51.472;5.712;2023-04-03T07:25:50;3.40;;;1.10;;
42104;SDS011;68365;51.472;5.712;2023-04-03T07:28:17;4.47;;;1.60;;
42104;SDS011;68365;51.472;5.712;2023-04-03T07:30:45;6.18;;;1.40;;
42104;SDS011;68365;51.472;5.712;2023-04-03T07:33:14;6.78;;;1.52;;
42104;SDS011;68365;51.472;5.712;2023-04-03T07:35:42;4.10;;;1.33;;
42104;SDS011;68365;51.472;5.712;2023-04-03T07:38:09;3.88;;;1.27;;
42104;SDS011;68365;51.472;5.712;2023-04-03T07:40:36;4.65;;;1.30;;
42104;SDS011;68365;51.472;5.712;2023-04-03T07:43:03;4.95;;;1.35;;
42104;SDS011;68365;51.472;5.712;2023-04-03T07:45:30;6.72;;;1.58;;
42104;SDS011;68365;51.472;5.712;2023-04-03T07:47:56;4.60;;;1.48;;
42104;SDS011;68365;51.472;5.712;2023-04-03T07:50:22;2.75;;;1.33;;
42104;SDS011;68365;51.472;5.712;2023-04-03T07:52:49;1.88;;;1.30;;
42104;SDS011;68365;51.472;5.712;2023-04-03T07:55:16;5.72;;;1.30;;
42104;SDS011;68365;51.472;5.712;2023-04-03T07:57:42;2.97;;;1.10;;
42104;SDS011;68365;51.472;5.712;2023-04-03T08:00:07;3.25;;;1.20;;
42104;SDS011;68365;51.472;5.712;2023-04-03T08:02:34;2.65;;;1.30;;
42104;SDS011;68365;51.472;5.712;2023-04-03T08:05:00;2.75;;;1.20;;
42104;SDS011;68365;51.472;5.712;2023-04-03T08:07:26;2.88;;;1.48;;
42104;SDS011;68365;51.472;5.712;2023-04-03T08:09:52;4.28;;;1.23;;
42104;SDS011;68365;51.472;5.712;2023-04-03T08:12:18;5.18;;;1.52;;
42104;SDS011;68365;51.472;5.712;2023-04-03T08:14:44;7.03;;;1.70;;
42104;SDS011;68365;51.472;5.712;2023-04-03T08:17:09;3.55;;;1.30;;
42104;SDS011;68365;51.472;5.712;2023-04-03T08:19:39;2.42;;;1.35;;
42104;SDS011;68365;51.472;5.712;2023-04-03T08:22:05;8.40;;;1.70;;
42104;SDS011;68365;51.472;5.712;2023-04-03T08:24:32;2.05;;;1.30;;
42104;SDS011;68365;51.472;5.712;2023-04-03T08:26:59;4.05;;;1.48;;
42104;SDS011;68365;51.472;5.712;2023-04-03T08:29:25;3.20;;;1.30;;
42104;SDS011;68365;51.472;5.712;2023-04-03T08:31:51;3.42;;;1.35;;
42104;SDS011;68365;51.472;5.712;2023-04-03T08:34:17;3.85;;;1.40;;
42104;SDS011;68365;51.472;5.712;2023-04-03T08:36:44;2.20;;;1.10;;
42104;SDS011;68365;51.472;5.712;2023-04-03T08:39:11;2.17;;;1.30;;
42104;SDS011;68365;51.472;5.712;2023-04-03T08:41:43;4.03;;;1.45;;
42104;SDS011;68365;51.472;5.712;2023-04-03T08:50:05;2.33;;;1.27;;
42104;SDS011;68365;51.472;5.712;2023-04-03T08:53:20;5.10;;;1.30;;
42104;SDS011;68365;51.472;5.712;2023-04-03T08:55:28;2.65;;;1.42;;
42104;SDS011;68365;51.472;5.712;2023-04-03T08:58:26;15.18;;;3.10;;
42104;SDS011;68365;51.472;5.712;2023-04-03T09:00:57;74.00;;;14.05;;
42104;SDS011;68365;51.472;5.712;2023-04-03T09:03:38;100.32;;;19.98;;
42104;SDS011;68365;51.472;5.712;2023-04-03T09:06:21;81.72;;;16.00;;
42104;SDS011;68365;51.472;5.712;2023-04-03T09:11:52;47.08;;;10.93;;
42104;SDS011;68365;51.472;5.712;2023-04-03T09:16:55;36.83;;;8.35;;
42104;SDS011;68365;51.472;5.712;2023-04-03T09:22:25;39.08;;;8.90;;
42104;SDS011;68365;51.472;5.712;2023-04-03T09:27:44;37.75;;;8.73;;
42104;SDS011;68365;51.472;5.712;2023-04-03T09:30:21;36.25;;;8.93;;
42104;SDS011;68365;51.472;5.712;2023-04-03T09:32:51;33.47;;;8.20;;
42104;SDS011;68365;51.472;5.712;2023-04-03T09:40:35;35.83;;;8.35;;
42104;SDS011;68365;51.472;5.712;2023-04-03T09:45:56;33.60;;;8.23;;
42104;SDS011;68365;51.472;5.712;2023-04-03T09:55:04;27.10;;;7.20;;
42104;SDS011;68365;51.472;5.712;2023-04-03T09:57:12;27.05;;;6.65;;
42104;SDS011;68365;51.472;5.712;2023-04-03T09:59:46;33.05;;;7.30;;
42104;SDS011;68365;51.472;5.712;2023-04-03T10:05:03;28.02;;;6.68;;
42104;SDS011;68365;51.472;5.712;2023-04-03T10:07:49;23.65;;;6.90;;
42104;SDS011;68365;51.472;5.712;2023-04-03T10:12:48;23.58;;;7.05;;
42104;SDS011;68365;51.472;5.712;2023-04-03T10:15:33;27.50;;;7.05;;
42104;SDS011;68365;51.472;5.712;2023-04-03T10:20:49;25.45;;;7.03;;
42104;SDS011;68365;51.472;5.712;2023-04-03T10:23:24;29.55;;;6.25;;
42104;SDS011;68365;51.472;5.712;2023-04-03T10:26:16;21.95;;;6.32;;
42104;SDS011;68365;51.472;5.712;2023-04-03T10:29:43;21.75;;;6.00;;
42104;SDS011;68365;51.472;5.712;2023-04-03T10:47:10;31.65;;;10.20;;
42104;SDS011;68365;51.472;5.712;2023-04-03T10:52:57;66.13;;;24.50;;
42104;SDS011;68365;51.472;5.712;2023-04-03T10:55:52;65.10;;;25.42;;
42104;SDS011;68365;51.472;5.712;2023-04-03T11:02:05;37.08;;;12.32;;
42104;SDS011;68365;51.472;5.712;2023-04-03T11:05:15;36.47;;;11.82;;
42104;SDS011;68365;51.472;5.712;2023-04-03T11:08:12;36.15;;;11.95;;
42104;SDS011;68365;51.472;5.712;2023-04-03T11:11:17;37.17;;;11.90;;
42104;SDS011;68365;51.472;5.712;2023-04-03T11:14:02;33.28;;;11.52;;
42104;SDS011;68365;51.472;5.712;2023-04-03T11:16:34;34.38;;;10.13;;
42104;SDS011;68365;51.472;5.712;2023-04-03T11:24:24;35.03;;;11.00;;
42104;SDS011;68365;51.472;5.712;2023-04-03T11:26:55;27.77;;;9.48;;
42104;SDS011;68365;51.472;5.712;2023-04-03T11:29:24;28.20;;;9.75;;
42104;SDS011;68365;51.472;5.712;2023-04-03T11:34:37;30.63;;;9.15;;
42104;SDS011;68365;51.472;5.712;2023-04-03T11:37:50;31.52;;;9.73;;
42104;SDS011;68365;51.472;5.712;2023-04-03T11:40:22;29.35;;;8.27;;
42104;SDS011;68365;51.472;5.712;2023-04-03T11:47:57;27.73;;;8.38;;
42104;SDS011;68365;51.472;5.712;2023-04-03T11:55:45;25.63;;;7.75;;
42104;SDS011;68365;51.472;5.712;2023-04-03T11:58:33;25.10;;;7.50;;
42104;SDS011;68365;51.472;5.712;2023-04-03T12:01:01;26.33;;;7.47;;
42104;SDS011;68365;51.472;5.712;2023-04-03T12:03:57;22.83;;;7.32;;
42104;SDS011;68365;51.472;5.712;2023-04-03T12:08:57;20.38;;;6.85;;
42104;SDS011;68365;51.472;5.712;2023-04-03T12:11:25;21.40;;;6.75;;
42104;SDS011;68365;51.472;5.712;2023-04-03T12:16:25;17.83;;;5.95;;
42104;SDS011;68365;51.472;5.712;2023-04-03T12:21:21;19.40;;;6.28;;
42104;SDS011;68365;51.472;5.712;2023-04-03T12:24:02;15.88;;;6.13;;
42104;SDS011;68365;51.472;5.712;2023-04-03T12:29:27;18.65;;;5.47;;
42104;SDS011;68365;51.472;5.712;2023-04-03T12:35:34;13.57;;;5.20;;
42104;SDS011;68365;51.472;5.712;2023-04-03T12:41:45;16.95;;;4.75;;
42104;SDS011;68365;51.472;5.712;2023-04-03T12:49:44;13.00;;;4.45;;
42104;SDS011;68365;51.472;5.712;2023-04-03T12:52:45;11.13;;;4.30;;
42104;SDS011;68365;51.472;5.712;2023-04-03T12:55:18;9.90;;;3.90;;
42104;SDS011;68365;51.472;5.712;2023-04-03T12:57:46;15.27;;;4.75;;
42104;SDS011;68365;51.472;5.712;2023-04-03T13:00:29;9.10;;;4.15;;
42104;SDS011;68365;51.472;5.712;2023-04-03T13:03:03;13.40;;;4.13;;
42104;SDS011;68365;51.472;5.712;2023-04-03T13:05:44;11.48;;;3.78;;
42104;SDS011;68365;51.472;5.712;2023-04-03T13:08:12;11.50;;;4.15;;
42104;SDS011;68365;51.472;5.712;2023-04-03T13:10:51;16.00;;;4.00;;
42104;SDS011;68365;51.472;5.712;2023-04-03T13:13:24;7.65;;;3.28;;
42104;SDS011;68365;51.472;5.712;2023-04-03T13:15:53;11.30;;;3.45;;
42104;SDS011;68365;51.472;5.712;2023-04-03T13:18:35;8.93;;;3.45;;
42104;SDS011;68365;51.472;5.712;2023-04-03T13:21:06;9.38;;;3.08;;
42104;SDS011;68365;51.472;5.712;2023-04-03T13:23:47;12.35;;;3.25;;
42104;SDS011;68365;51.472;5.712;2023-04-03T13:26:17;9.50;;;3.35;;
42104;SDS011;68365;51.472;5.712;2023-04-03T13:28:46;7.75;;;3.20;;
42104;SDS011;68365;51.472;5.712;2023-04-03T13:36:35;9.00;;;3.28;;
42104;SDS011;68365;51.472;5.712;2023-04-03T13:41:38;9.82;;;3.45;;
42104;SDS011;68365;51.472;5.712;2023-04-03T13:47:14;12.82;;;3.55;;
42104;SDS011;68365;51.472;5.712;2023-04-03T13:50:04;8.15;;;2.58;;
42104;SDS011;68365;51.472;5.712;2023-04-03T13:55:19;6.57;;;2.80;;
42104;SDS011;68365;51.472;5.712;2023-04-03T13:58:01;8.73;;;2.70;;
42104;SDS011;68365;51.472;5.712;2023-04-03T14:00:36;6.10;;;2.40;;
42104;SDS011;68365;51.472;5.712;2023-04-03T14:03:22;6.57;;;2.63;;
42104;SDS011;68365;51.472;5.712;2023-04-03T14:06:14;6.68;;;2.28;;
42104;SDS011;68365;51.472;5.712;2023-04-03T14:08:42;5.40;;;2.55;;
42104;SDS011;68365;51.472;5.712;2023-04-03T14:11:14;7.32;;;2.90;;
42104;SDS011;68365;51.472;5.712;2023-04-03T14:13:47;8.90;;;2.55;;
42104;SDS011;68365;51.472;5.712;2023-04-03T14:16:23;8.85;;;3.05;;
42104;SDS011;68365;51.472;5.712;2023-04-03T14:18:55;8.02;;;2.60;;
42104;SDS011;68365;51.472;5.712;2023-04-03T14:21:21;6.90;;;2.40;;
42104;SDS011;68365;51.472;5.712;2023-04-03T14:23:48;10.95;;;2.90;;
42104;SDS011;68365;51.472;5.712;2023-04-03T14:26:24;10.65;;;2.60;;
42104;SDS011;68365;51.472;5.712;2023-04-03T14:28:53;8.55;;;2.70;;
42104;SDS011;68365;51.472;5.712;2023-04-03T14:31:20;7.80;;;2.67;;
42104;SDS011;68365;51.472;5.712;2023-04-03T14:33:47;8.25;;;2.20;;
42104;SDS011;68365;51.472;5.712;2023-04-03T14:36:18;7.28;;;2.38;;
42104;SDS011;68365;51.472;5.712;2023-04-03T14:38:47;6.57;;;2.20;;
42104;SDS011;68365;51.472;5.712;2023-04-03T14:41:15;6.97;;;2.40;;
42104;SDS011;68365;51.472;5.712;2023-04-03T14:43:45;8.70;;;2.25;;
42104;SDS011;68365;51.472;5.712;2023-04-03T14:46:31;8.90;;;2.20;;
42104;SDS011;68365;51.472;5.712;2023-04-03T14:49:01;8.93;;;2.10;;
42104;SDS011;68365;51.472;5.712;2023-04-03T14:51:36;8.07;;;2.10;;
42104;SDS011;68365;51.472;5.712;2023-04-03T14:54:03;4.80;;;2.25;;
42104;SDS011;68365;51.472;5.712;2023-04-03T14:56:30;6.63;;;2.40;;
42104;SDS011;68365;51.472;5.712;2023-04-03T14:58:59;5.55;;;2.30;;
42104;SDS011;68365;51.472;5.712;2023-04-03T15:01:26;5.75;;;2.35;;
42104;SDS011;68365;51.472;5.712;2023-04-03T15:03:53;6.15;;;2.33;;
42104;SDS011;68365;51.472;5.712;2023-04-03T15:06:19;8.63;;;2.30;;
42104;SDS011;68365;51.472;5.712;2023-04-03T15:08:46;4.82;;;1.80;;
42104;SDS011;68365;51.472;5.712;2023-04-03T15:11:12;5.15;;;2.10;;
42104;SDS011;68365;51.472;5.712;2023-04-03T15:13:40;4.80;;;1.90;;
42104;SDS011;68365;51.472;5.712;2023-04-03T15:16:10;9.02;;;2.33;;
42104;SDS011;68365;51.472;5.712;2023-04-03T15:18:43;3.33;;;1.90;;
42104;SDS011;68365;51.472;5.712;2023-04-03T15:21:10;4.72;;;2.03;;
42104;SDS011;68365;51.472;5.712;2023-04-03T15:23:36;4.50;;;2.20;;
42104;SDS011;68365;51.472;5.712;2023-04-03T15:26:02;4.47;;;1.80;;
42104;SDS011;68365;51.472;5.712;2023-04-03T15:28:32;4.88;;;2.03;;
42104;SDS011;68365;51.472;5.712;2023-04-03T15:31:07;6.05;;;2.00;;
42104;SDS011;68365;51.472;5.712;2023-04-03T15:33:34;5.63;;;2.00;;
42104;SDS011;68365;51.472;5.712;2023-04-03T15:36:00;8.77;;;2.15;;
42104;SDS011;68365;51.472;5.712;2023-04-03T15:38:26;4.70;;;2.00;;
42104;SDS011;68365;51.472;5.712;2023-04-03T15:40:53;3.55;;;2.00;;
42104;SDS011;68365;51.472;5.712;2023-04-03T15:43:20;4.43;;;2.22;;
42104;SDS011;68365;51.472;5.712;2023-04-03T15:45:46;5.43;;;2.17;;
42104;SDS011;68365;51.472;5.712;2023-04-03T15:48:13;8.57;;;1.83;;
42104;SDS011;68365;51.472;5.712;2023-04-03T15:50:39;4.28;;;1.98;;
42104;SDS011;68365;51.472;5.712;2023-04-03T15:53:06;3.78;;;2.33;;
42104;SDS011;68365;51.472;5.712;2023-04-03T15:55:33;4.78;;;1.70;;
42104;SDS011;68365;51.472;5.712;2023-04-03T15:58:02;7.55;;;1.85;;
42104;SDS011;68365;51.472;5.712;2023-04-03T16:00:29;8.77;;;2.05;;
42104;SDS011;68365;51.472;5.712;2023-04-03T16:03:00;5.28;;;1.63;;
42104;SDS011;68365;51.472;5.712;2023-04-03T16:05:33;5.22;;;1.90;;
42104;SDS011;68365;51.472;5.712;2023-04-03T16:08:02;6.32;;;1.65;;
42104;SDS011;68365;51.472;5.712;2023-04-03T16:10:30;5.85;;;1.98;;
42104;SDS011;68365;51.472;5.712;2023-04-03T16:12:56;5.47;;;1.63;;
42104;SDS011;68365;51.472;5.712;2023-04-03T16:15:22;13.57;;;2.80;;
42104;SDS011;68365;51.472;5.712;2023-04-03T16:17:49;33.45;;;6.90;;
42104;SDS011;68365;51.472;5.712;2023-04-03T16:20:16;30.08;;;5.80;;
42104;SDS011;68365;51.472;5.712;2023-04-03T16:22:43;23.00;;;4.68;;
42104;SDS011;68365;51.472;5.712;2023-04-03T16:25:09;9.80;;;3.42;;
42104;SDS011;68365;51.472;5.712;2023-04-03T16:27:36;16.70;;;5.78;;
42104;SDS011;68365;51.472;5.712;2023-04-03T16:30:04;17.70;;;5.43;;
42104;SDS011;68365;51.472;5.712;2023-04-03T16:32:31;19.17;;;5.20;;
42104;SDS011;68365;51.472;5.712;2023-04-03T16:34:57;16.15;;;3.92;;
42104;SDS011;68365;51.472;5.712;2023-04-03T16:37:24;25.55;;;4.05;;
42104;SDS011;68365;51.472;5.712;2023-04-03T16:39:50;12.23;;;3.67;;
42104;SDS011;68365;51.472;5.712;2023-04-03T16:42:17;12.45;;;4.05;;
42104;SDS011;68365;51.472;5.712;2023-04-03T16:44:42;20.35;;;4.40;;
42104;SDS011;68365;51.472;5.712;2023-04-03T16:47:08;13.30;;;3.75;;
42104;SDS011;68365;51.472;5.712;2023-04-03T16:49:34;16.73;;;3.58;;
42104;SDS011;68365;51.472;5.712;2023-04-03T16:52:01;20.88;;;4.70;;
42104;SDS011;68365;51.472;5.712;2023-04-03T16:54:29;17.77;;;4.40;;
42104;SDS011;68365;51.472;5.712;2023-04-03T16:56:56;19.77;;;4.35;;
42104;SDS011;68365;51.472;5.712;2023-04-03T16:59:22;14.27;;;3.42;;
42104;SDS011;68365;51.472;5.712;2023-04-03T17:01:48;14.73;;;4.05;;
42104;SDS011;68365;51.472;5.712;2023-04-03T17:04:14;15.00;;;3.78;;